Weather at Petrich Air Base [CLOSED]

Public forecast

Using degrees Celsius for public forecast. Weather courtesy of forecast.io.

Closest aviation weather report (METAR) to Petrich Air Base

Closest report is Thessaloniki Macedonia International Airport, 56.9 nm (105.4 km) SSW.

2024/06/22 07:20 (retrieved 12 minutes ago)

LGTS 220720Z 34004KT CAVOK 29/21 Q1012 NOSIG

Closest aviation forecast (TAF) to Petrich Air Base

Closest forecast is Thessaloniki Macedonia International Airport, 56.9 nm (105.4 km) SSW.

2024/06/22 06:12 (retrieved 1 hour ago)

TAF LGTS 220500Z 2206/2306 VRB03KT CAVOK BECMG 2210/2212 16013KT BECMG 2222/2224 VRB03KT